Main page
METAR-TAF:

METAR-TAF

Airports :

Tongareva Airport

Penrhyn, Cook Islands

latitude: 9-00-52S, longitude: 158-01-57W, elevation: 2 m

Current weather observation

The report was made 32 minutes ago, at 14:00 UTC
Wind 8 kt from the East/Northeast
Temperature 28°C
Humidity 84%
Pressure 1009 hPa

METAR: NCPY 221400Z AUTO 07008KT //// ////// 28/25 Q1009

Time: 04:32 (14:32 UTC)


TAF: missing

Weather observations and forecasts of more than 4000 airports (METAR and TAF reports).

The available stations are represented by yellow and red dots on the map.

Hover mouse over dot to see the name of the station.

Then click to see weather observations and forecasts.

To change the map : click on the green buttons with a black cross to zoom in, on the green button with a dash to zoom out, or on the green arrows for adjacent maps.


METAR-TAF: